createdAt,value
2018-08-09T00:02:40.548Z,100069.63
2018-08-09T00:05:43.634Z,100076.16
2018-08-09T00:08:46.776Z,100073.77
2018-08-09T00:11:49.922Z,100076.37
2018-08-09T00:14:53.189Z,100068.00
2018-08-09T00:17:56.277Z,100061.04
2018-08-09T00:20:59.642Z,100042.28
2018-08-09T00:24:02.922Z,100056.94
2018-08-09T00:27:06.111Z,100050.04
2018-08-09T00:30:12.978Z,100048.38
2018-08-09T00:33:30.834Z,100062.95
2018-08-09T00:36:35.830Z,100066.33
2018-08-09T00:39:41.094Z,100067.03
2018-08-09T00:42:44.342Z,100063.67
2018-08-09T00:45:47.449Z,100068.64
2018-08-09T00:48:50.526Z,100069.03
2018-08-09T00:51:53.606Z,100062.00
2018-08-09T00:54:56.662Z,100063.32
2018-08-09T00:58:00.435Z,100060.78
2018-08-09T01:01:04.470Z,100051.29
2018-08-09T01:04:07.534Z,100051.20
2018-08-09T01:07:10.554Z,100045.94
2018-08-09T01:10:13.702Z,100050.42
2018-08-09T01:13:21.439Z,100048.65
2018-08-09T01:16:25.530Z,100040.80
2018-08-09T01:19:28.733Z,100031.33
2018-08-09T01:22:32.012Z,100032.66
2018-08-09T01:25:35.410Z,100037.25
2018-08-09T01:28:38.433Z,100026.95
2018-08-09T01:31:41.998Z,100035.42
2018-08-09T01:34:50.890Z,100022.88
2018-08-09T01:38:03.462Z,100034.70
2018-08-09T01:41:07.737Z,100024.43
2018-08-09T01:44:10.778Z,100024.78
2018-08-09T01:47:13.821Z,99974.39
2018-08-09T01:50:17.086Z,100029.55
2018-08-09T01:53:20.350Z,100022.45
2018-08-09T01:56:23.667Z,100019.77
2018-08-09T01:59:26.748Z,100025.38
2018-08-09T02:02:29.826Z,100022.62
2018-08-09T02:05:32.948Z,100015.05
2018-08-09T02:08:36.193Z,100018.73
2018-08-09T02:11:39.243Z,100007.55
2018-08-09T02:14:42.330Z,100006.23
2018-08-09T02:17:45.418Z,99999.12
2018-08-09T02:20:48.596Z,99998.92
2018-08-09T02:23:52.045Z,100000.91
2018-08-09T02:26:55.180Z,100001.27
2018-08-09T02:29:58.427Z,99983.28
2018-08-09T02:33:01.573Z,99984.02
2018-08-09T02:36:04.733Z,99976.24
2018-08-09T02:39:09.610Z,99976.49
2018-08-09T02:42:12.695Z,99971.48
2018-08-09T02:45:15.912Z,99974.14
2018-08-09T02:48:19.015Z,99982.73
2018-08-09T02:51:22.177Z,99978.32
2018-08-09T02:54:25.282Z,99976.83
2018-08-09T02:57:28.342Z,99977.34
2018-08-09T03:00:31.396Z,99979.55
2018-08-09T03:03:34.505Z,99981.20
2018-08-09T03:06:37.531Z,99981.95
2018-08-09T03:09:40.601Z,99968.64
2018-08-09T03:12:43.693Z,99962.33
2018-08-09T03:15:46.756Z,99959.73
2018-08-09T03:18:49.883Z,99957.37
2018-08-09T03:21:52.924Z,99969.75
2018-08-09T03:24:55.943Z,99953.27
2018-08-09T03:27:58.983Z,99946.77
2018-08-09T03:31:02.040Z,99935.41
2018-08-09T03:34:05.105Z,99931.56
2018-08-09T03:37:08.638Z,99937.08
2018-08-09T03:40:12.245Z,99944.55
2018-08-09T03:43:15.801Z,99952.12
2018-08-09T03:49:39.990Z,99967.44
2018-08-09T03:52:44.719Z,99972.72
2018-08-09T03:55:47.772Z,99977.23
2018-08-09T03:58:50.839Z,99969.75
2018-08-09T04:01:53.877Z,99963.96
2018-08-09T04:04:57.002Z,99949.25
2018-08-09T04:08:00.008Z,99949.31
2018-08-09T04:11:03.122Z,99958.12
2018-08-09T04:14:06.305Z,99962.59
2018-08-09T04:17:13.816Z,99958.20
2018-08-09T04:20:16.893Z,99966.27
2018-08-09T04:23:19.974Z,99972.59
2018-08-09T04:26:23.047Z,99964.44
2018-08-09T04:29:26.078Z,99960.89
2018-08-09T04:32:29.088Z,99957.05
2018-08-09T04:35:32.237Z,99971.00
2018-08-09T04:38:35.295Z,99967.74
2018-08-09T04:41:38.360Z,99971.47
2018-08-09T04:44:41.402Z,99979.14
2018-08-09T04:47:44.576Z,99977.11
2018-08-09T04:50:47.629Z,99960.07
2018-08-09T04:53:50.690Z,99942.66
2018-08-09T04:56:53.788Z,99955.87
2018-08-09T04:59:56.962Z,99950.00
2018-08-09T05:03:00.116Z,99953.66
2018-08-09T05:06:03.473Z,99941.93
2018-08-09T05:09:08.629Z,99932.20
2018-08-09T05:12:11.698Z,99940.82
2018-08-09T05:15:14.859Z,99943.42
2018-08-09T05:18:17.916Z,99944.28
2018-08-09T05:21:20.953Z,99937.32
2018-08-09T05:24:24.008Z,99930.95
2018-08-09T05:27:27.118Z,99929.31
2018-08-09T05:30:30.184Z,99929.73
2018-08-09T05:33:33.288Z,99930.26
2018-08-09T05:36:36.376Z,99928.86
2018-08-09T05:39:39.486Z,99929.91
2018-08-09T05:42:42.541Z,99915.20
2018-08-09T05:45:45.709Z,99917.66
2018-08-09T05:48:48.842Z,99916.38
2018-08-09T05:51:51.885Z,99913.55
2018-08-09T05:54:54.930Z,99910.71
2018-08-09T05:57:58.026Z,99899.39
2018-08-09T06:01:01.100Z,99891.11
2018-08-09T06:04:04.167Z,99883.06
2018-08-09T06:07:07.246Z,99891.16
2018-08-09T06:10:10.354Z,99893.88
2018-08-09T06:13:13.489Z,99894.55
2018-08-09T06:16:16.565Z,99893.44
2018-08-09T06:19:19.845Z,99870.69
2018-08-09T06:22:22.917Z,99893.02
2018-08-09T06:25:25.942Z,99889.88
2018-08-09T06:28:29.130Z,99888.01
2018-08-09T06:31:32.238Z,99882.06
2018-08-09T06:34:35.309Z,99874.25
2018-08-09T06:37:38.445Z,99889.15
2018-08-09T06:40:41.505Z,99876.28
2018-08-09T06:43:44.630Z,99873.99
2018-08-09T06:46:47.725Z,99866.28
2018-08-09T06:49:50.786Z,99864.63
2018-08-09T06:52:53.890Z,99867.25
2018-08-09T06:55:56.974Z,99871.42
2018-08-09T06:59:00.074Z,99877.18
2018-08-09T07:02:03.201Z,99880.77
2018-08-09T07:05:06.343Z,99861.28
2018-08-09T07:08:09.566Z,99850.27
2018-08-09T07:11:12.695Z,99845.75
2018-08-09T07:14:15.760Z,99834.48
2018-08-09T07:17:18.964Z,99830.83
2018-08-09T07:20:22.050Z,99840.87
2018-08-09T07:23:25.091Z,99851.45
2018-08-09T07:26:28.415Z,99852.78
2018-08-09T07:29:31.478Z,99851.38
2018-08-09T07:32:34.565Z,99858.43
2018-08-09T07:35:37.689Z,99846.98
2018-08-09T07:38:40.757Z,99849.90
2018-08-09T07:41:43.830Z,99846.80
2018-08-09T07:44:46.947Z,99847.72
2018-08-09T07:47:50.068Z,99852.98
2018-08-09T07:50:53.338Z,99847.74
2018-08-09T07:53:56.374Z,99842.73
2018-08-09T07:57:00.026Z,99818.55
2018-08-09T08:00:03.335Z,99819.68
2018-08-09T08:03:06.458Z,99819.59
2018-08-09T08:06:09.736Z,99811.14
2018-08-09T08:09:12.782Z,99802.81
2018-08-09T08:12:15.851Z,99770.38
2018-08-09T08:15:18.981Z,99793.48
2018-08-09T08:18:22.127Z,99801.21
2018-08-09T08:21:25.214Z,99808.05
2018-08-09T08:24:28.279Z,99803.06
2018-08-09T08:27:31.410Z,99797.56
2018-08-09T08:30:34.517Z,99795.09
2018-08-09T08:33:37.556Z,99803.98
2018-08-09T08:36:40.637Z,99787.47
2018-08-09T08:39:43.730Z,99774.48
2018-08-09T08:42:46.844Z,99766.38
2018-08-09T08:45:50.015Z,99759.75
2018-08-09T08:48:53.050Z,99731.52
2018-08-09T08:51:56.121Z,99712.20
2018-08-09T08:55:06.739Z,99707.42
2018-08-09T08:58:09.854Z,99707.89
2018-08-09T09:01:12.899Z,99713.00
2018-08-09T09:04:16.000Z,99716.90
2018-08-09T09:07:19.187Z,99717.34
2018-08-09T09:10:22.261Z,99710.98
2018-08-09T09:13:25.481Z,99716.13
2018-08-09T09:16:28.529Z,99713.18
2018-08-09T09:19:31.599Z,99715.66
2018-08-09T09:22:34.898Z,99717.36
2018-08-09T09:25:37.951Z,99712.94
2018-08-09T09:28:41.131Z,99705.43
2018-08-09T09:31:44.188Z,99700.19
2018-08-09T09:34:47.306Z,99689.39
2018-08-09T09:37:50.353Z,99693.63
2018-08-09T09:40:53.466Z,99681.31
2018-08-09T09:43:56.483Z,99663.28
2018-08-09T09:46:59.632Z,99651.55
2018-08-09T09:50:03.083Z,99644.91
2018-08-09T09:53:06.171Z,99627.05
2018-08-09T09:56:09.217Z,99618.95
2018-08-09T09:59:12.274Z,99624.23
2018-08-09T10:02:15.341Z,99604.16
2018-08-09T10:05:18.378Z,99591.66
2018-08-09T10:08:21.429Z,99588.00
2018-08-09T10:11:24.483Z,99571.45
2018-08-09T10:14:27.548Z,99556.70
2018-08-09T10:17:30.606Z,99538.50
2018-08-09T10:20:33.670Z,99538.28
2018-08-09T10:23:36.847Z,99534.52
2018-08-09T10:26:39.878Z,99530.02
2018-08-09T10:29:42.858Z,99523.23
2018-08-09T10:32:45.974Z,99512.70
2018-08-09T10:35:49.099Z,99509.74
2018-08-09T10:38:52.264Z,99503.31
2018-08-09T10:41:55.472Z,99491.95
2018-08-09T10:44:58.597Z,99502.81
2018-08-09T10:48:01.740Z,99504.59
2018-08-09T10:51:04.901Z,99486.36
2018-08-09T10:54:08.239Z,99464.11
2018-08-09T10:57:11.625Z,99456.45
2018-08-09T11:00:15.269Z,99455.39
2018-08-09T11:03:18.470Z,99441.48
2018-08-09T11:06:21.924Z,99436.14
2018-08-09T11:09:25.188Z,99435.38
2018-08-09T11:12:28.714Z,99430.72
2018-08-09T11:15:31.946Z,99426.20
2018-08-09T11:18:35.832Z,99423.73
2018-08-09T11:21:38.885Z,99416.68
2018-08-09T11:24:41.918Z,99397.86
2018-08-09T11:27:44.978Z,99382.75
2018-08-09T11:30:48.033Z,99372.96
2018-08-09T11:33:51.071Z,99370.33
2018-08-09T11:36:54.159Z,99372.41
2018-08-09T11:39:57.149Z,99358.60
2018-08-09T11:43:07.026Z,99335.49
2018-08-09T11:46:10.063Z,99332.23
2018-08-09T11:49:13.192Z,99321.86
2018-08-09T11:52:16.274Z,99304.89
2018-08-09T11:55:19.322Z,99296.42
2018-08-09T11:58:22.432Z,99287.47
2018-08-09T12:01:25.549Z,99282.60
2018-08-09T12:04:28.538Z,99275.03
2018-08-09T12:07:31.585Z,99259.05
2018-08-09T12:10:34.638Z,99248.13
2018-08-09T12:13:37.821Z,99252.77
2018-08-09T12:16:40.764Z,99244.67
2018-08-09T12:19:43.874Z,99250.85
2018-08-09T12:22:46.990Z,99243.33
2018-08-09T12:25:50.271Z,99226.28
2018-08-09T12:28:53.325Z,99227.98
2018-08-09T12:31:56.426Z,99231.80
2018-08-09T12:34:59.509Z,99234.15
2018-08-09T12:38:02.590Z,99234.98
2018-08-09T12:41:05.663Z,99244.61
2018-08-09T12:44:09.154Z,99250.98
2018-08-09T12:47:12.302Z,99237.98
2018-08-09T12:50:15.425Z,99218.52
2018-08-09T12:53:18.734Z,99209.99
2018-08-09T12:56:21.860Z,99209.37
2018-08-09T12:59:25.016Z,99198.20
2018-08-09T13:02:28.236Z,99200.63
2018-08-09T13:05:31.295Z,99186.93
2018-08-09T13:08:34.681Z,99181.32
2018-08-09T13:11:37.735Z,99174.94
2018-08-09T13:14:40.837Z,99182.12
2018-08-09T13:17:45.237Z,99186.79
2018-08-09T13:20:48.366Z,99182.70
2018-08-09T13:23:51.417Z,99189.74
2018-08-09T13:26:54.496Z,99184.96
2018-08-09T13:29:57.649Z,99185.66
2018-08-09T13:33:00.827Z,99196.35
2018-08-09T13:36:03.972Z,99200.88
2018-08-09T13:39:10.849Z,99248.23
2018-08-09T13:42:13.890Z,99311.38
2018-08-09T13:45:16.988Z,99336.16
2018-08-09T13:48:20.024Z,99351.06
2018-08-09T13:51:23.030Z,99345.66
2018-08-09T13:54:26.072Z,99356.90
2018-08-09T13:57:29.092Z,99360.33
2018-08-09T14:00:32.156Z,99370.66
2018-08-09T14:03:35.295Z,99378.58
2018-08-09T14:06:38.241Z,99375.28
2018-08-09T14:09:41.236Z,99367.14
2018-08-09T14:12:44.180Z,99365.38
2018-08-09T14:15:47.190Z,99366.28
2018-08-09T14:18:50.127Z,99385.84
2018-08-09T14:21:53.138Z,99378.44
2018-08-09T14:24:56.989Z,99404.44
2018-08-09T14:28:00.063Z,99386.50
2018-08-09T14:31:03.287Z,99382.13
2018-08-09T14:34:06.582Z,99384.28
2018-08-09T14:37:09.870Z,99390.67
2018-08-09T14:40:13.651Z,99395.67
2018-08-09T14:43:16.652Z,99405.55
2018-08-09T14:46:19.784Z,99404.31
2018-08-09T14:49:23.052Z,99382.56
2018-08-09T14:52:26.006Z,99362.76
2018-08-09T14:55:29.004Z,99375.04
2018-08-09T14:58:32.024Z,99380.56
2018-08-09T15:01:35.041Z,99387.23
2018-08-09T15:04:37.945Z,99389.94
2018-08-09T15:07:41.353Z,99384.63
2018-08-09T15:10:44.371Z,99376.68
2018-08-09T15:13:47.392Z,99372.36
2018-08-09T15:16:50.364Z,99376.05
2018-08-09T15:19:53.318Z,99369.83
2018-08-09T15:22:56.384Z,99370.61
2018-08-09T15:25:59.318Z,99350.94
2018-08-09T15:29:02.371Z,99347.89
2018-08-09T15:32:05.403Z,99342.31
2018-08-09T15:35:08.360Z,99339.08
2018-08-09T15:38:11.385Z,99361.58
2018-08-09T15:41:14.380Z,99344.05
2018-08-09T15:44:17.366Z,99345.59
2018-08-09T15:47:20.420Z,99358.17
2018-08-09T15:50:23.458Z,99348.17
2018-08-09T15:53:26.436Z,99350.45
2018-08-09T15:56:29.619Z,99337.78
2018-08-09T15:59:32.723Z,99346.45
2018-08-09T16:02:35.750Z,99337.61
2018-08-09T16:05:38.842Z,99337.30
2018-08-09T16:08:41.813Z,99362.33
2018-08-09T16:11:44.947Z,99350.21
2018-08-09T16:14:47.979Z,99341.72
2018-08-09T16:17:52.411Z,99355.97
2018-08-09T16:20:55.574Z,99354.22
2018-08-09T16:23:58.611Z,99343.12
2018-08-09T16:27:01.756Z,99336.38
2018-08-09T16:30:15.667Z,99330.84
2018-08-09T16:33:18.680Z,99338.44
2018-08-09T16:36:21.630Z,99336.18
2018-08-09T16:39:24.739Z,99361.86
2018-08-09T16:42:27.888Z,99324.98
2018-08-09T16:45:31.046Z,99325.10
2018-08-09T16:48:34.156Z,99312.11
2018-08-09T16:51:37.295Z,99311.72
2018-08-09T16:54:40.450Z,99295.83
2018-08-09T16:57:43.710Z,99294.58
2018-08-09T17:00:46.919Z,99308.52
2018-08-09T17:03:50.867Z,99304.54
2018-08-09T17:07:02.859Z,99297.53
2018-08-09T17:10:06.893Z,99311.79
2018-08-09T17:13:09.995Z,99298.20
2018-08-09T17:16:13.090Z,99299.27
2018-08-09T17:19:16.232Z,99300.20
2018-08-09T17:22:19.271Z,99307.23
2018-08-09T17:25:22.514Z,99315.14
2018-08-09T17:28:25.468Z,99312.65
2018-08-09T17:31:28.529Z,99299.78
2018-08-09T17:34:32.184Z,99298.13
2018-08-09T17:37:35.393Z,99312.22
2018-08-09T17:40:38.391Z,99306.74
2018-08-09T17:43:41.448Z,99305.76
2018-08-09T17:46:44.487Z,99300.91
2018-08-09T17:49:47.471Z,99306.12
2018-08-09T17:52:50.416Z,99315.84
2018-08-09T17:55:53.381Z,99320.49
2018-08-09T17:58:57.039Z,99337.11
2018-08-09T18:02:00.067Z,99338.84
2018-08-09T18:05:03.968Z,99338.98
2018-08-09T18:08:07.170Z,99343.89
2018-08-09T18:11:10.182Z,99346.58
2018-08-09T18:14:13.099Z,99352.79
2018-08-09T18:17:16.074Z,99348.86
2018-08-09T18:20:20.687Z,99354.20
2018-08-09T18:23:23.700Z,99365.25
2018-08-09T18:26:28.178Z,99365.42
2018-08-09T18:29:31.453Z,99359.94
2018-08-09T18:32:35.140Z,99399.48
2018-08-09T18:35:38.666Z,99412.91
2018-08-09T18:38:42.181Z,99455.31
2018-08-09T18:41:45.541Z,99473.96
2018-08-09T18:44:48.552Z,99486.05
2018-08-09T18:47:52.050Z,99475.30
2018-08-09T18:50:55.861Z,99494.78
2018-08-09T18:53:59.479Z,99502.23
2018-08-09T18:57:31.904Z,99518.64
2018-08-09T19:00:35.310Z,99525.75
2018-08-09T19:03:39.808Z,99524.89
2018-08-09T19:06:43.343Z,99535.20
2018-08-09T19:09:46.698Z,99533.61
2018-08-09T19:12:50.112Z,99559.59
2018-08-09T19:15:53.275Z,99563.51
2018-08-09T19:19:02.691Z,99578.24
2018-08-09T19:22:08.077Z,99594.02
2018-08-09T19:25:12.950Z,99602.84
2018-08-09T19:28:16.196Z,99601.38
2018-08-09T19:31:23.700Z,99605.42
2018-08-09T19:34:30.790Z,99605.05
2018-08-09T19:37:34.435Z,99619.38
2018-08-09T19:40:37.882Z,99619.88
2018-08-09T19:43:41.128Z,99616.21
2018-08-09T19:46:44.449Z,99619.58
2018-08-09T19:49:47.531Z,99619.25
2018-08-09T19:52:51.117Z,99614.00
2018-08-09T19:55:54.280Z,99614.47
2018-08-09T19:58:57.846Z,99613.75
2018-08-09T20:02:03.632Z,99608.12
2018-08-09T20:05:13.796Z,99606.30
2018-08-09T20:08:17.483Z,99626.11
2018-08-09T20:11:20.621Z,99628.56
2018-08-09T20:14:24.359Z,99620.02
2018-08-09T20:17:28.385Z,99637.88
2018-08-09T20:20:32.326Z,99636.95
2018-08-09T20:23:35.497Z,99640.12
2018-08-09T20:26:39.335Z,99643.03
2018-08-09T20:29:44.076Z,99645.31
2018-08-09T20:32:48.338Z,99658.73
2018-08-09T20:35:52.069Z,99643.61
2018-08-09T20:38:55.173Z,99650.94
2018-08-09T20:41:58.378Z,99651.65
2018-08-09T20:45:01.892Z,99668.30
2018-08-09T20:48:05.415Z,99652.11
2018-08-09T20:51:09.403Z,99663.58
2018-08-09T20:54:12.956Z,99670.29
2018-08-09T20:57:16.887Z,99682.97
2018-08-09T21:00:29.039Z,99677.48
2018-08-09T21:03:34.299Z,99686.84
2018-08-09T21:06:37.985Z,99708.33
2018-08-09T21:09:42.866Z,99701.31
2018-08-09T21:12:48.409Z,99717.06
2018-08-09T21:15:52.670Z,99723.97
2018-08-09T21:18:56.368Z,99727.88
2018-08-09T21:21:59.957Z,99734.76
2018-08-09T21:25:03.638Z,99742.45
2018-08-09T21:28:06.872Z,99742.78
2018-08-09T21:31:10.944Z,99737.74
2018-08-09T21:34:20.887Z,99741.53
2018-08-09T21:37:55.173Z,99745.54
2018-08-09T21:40:58.450Z,99769.61
2018-08-09T21:44:02.469Z,99772.63
2018-08-09T21:47:05.742Z,99749.97
2018-08-09T21:50:12.330Z,99784.78
2018-08-09T21:53:15.463Z,99803.81
2018-08-09T21:56:18.598Z,99825.04
2018-08-09T21:59:21.812Z,99854.70
2018-08-09T22:02:24.917Z,99857.93
2018-08-09T22:05:33.723Z,99853.57
2018-08-09T22:08:43.702Z,99850.31
2018-08-09T22:11:52.585Z,99863.25
2018-08-09T22:15:04.416Z,99864.85
2018-08-09T22:18:16.443Z,99867.55
2018-08-09T22:21:27.130Z,99886.59
2018-08-09T22:24:30.549Z,99888.30
2018-08-09T22:27:35.338Z,99883.84
2018-08-09T22:30:45.609Z,99899.78
2018-08-09T22:33:53.676Z,99900.95
2018-08-09T22:36:59.166Z,99903.94
2018-08-09T22:40:07.515Z,99901.34
2018-08-09T22:46:33.610Z,99921.88
2018-08-09T22:49:37.353Z,99922.56
2018-08-09T22:52:40.561Z,99943.19
2018-08-09T22:55:59.338Z,99947.48
2018-08-09T22:59:02.968Z,99953.06
2018-08-09T23:02:06.370Z,99953.53
2018-08-09T23:05:11.678Z,99960.36
2018-08-09T23:08:17.844Z,99963.19
2018-08-09T23:11:22.885Z,99974.22
2018-08-09T23:14:28.078Z,100014.34
2018-08-09T23:17:33.017Z,100013.33
2018-08-09T23:20:39.562Z,100005.05
2018-08-09T23:23:45.369Z,100017.59
2018-08-09T23:26:50.283Z,100032.27
2018-08-09T23:29:54.401Z,100035.34
2018-08-09T23:32:58.850Z,100033.25
2018-08-09T23:36:04.007Z,100043.94
2018-08-09T23:39:10.899Z,100048.12
2018-08-09T23:42:14.247Z,100056.50
2018-08-09T23:45:17.437Z,100071.89
2018-08-09T23:48:20.525Z,100068.23
2018-08-09T23:51:23.569Z,100078.34
2018-08-09T23:54:26.842Z,100082.02
2018-08-09T23:57:30.098Z,100085.77
